Time;durP1;ratioP1;P1;durP2;ratioP2;P2;SDS_P1;SDS_P2;PMS_P1;PMS_P2;Temp;Humidity;BMP_temperature;BMP_pressure;BME280_temperature;BME280_humidity;BME280_pressure;Samples;Min_cycle;Max_cycle;Signal;HPM_P1;HPM_P2
2022/03/20 00:01:05;;;;;;;21.70;14.13;;;1.00;97.00;;;;;;4992153;28;20026;-90
2022/03/20 00:03:31;;;;;;;22.92;13.57;;;0.90;97.20;;;;;;5008421;28;20030;-89
2022/03/20 00:05:59;;;;;;;28.15;15.18;;;0.80;97.70;;;;;;4993685;28;20438;-90
2022/03/20 00:08:25;;;;;;;24.17;15.02;;;0.80;97.40;;;;;;4992078;28;20022;-88
2022/03/20 00:10:54;;;;;;;25.52;14.18;;;0.60;98.20;;;;;;4992535;28;20041;-90
2022/03/20 00:13:22;;;;;;;23.70;13.73;;;0.50;97.90;;;;;;4992617;28;20033;-88
2022/03/20 00:15:50;;;;;;;24.38;13.40;;;0.50;98.40;;;;;;4992339;28;20037;-90
2022/03/20 00:18:20;;;;;;;22.85;14.52;;;0.60;98.10;;;;;;4992434;28;20117;-81
2022/03/20 00:20:50;;;;;;;35.22;13.85;;;0.60;98.00;;;;;;4993262;28;20030;-89
2022/03/20 00:23:17;;;;;;;28.93;16.30;;;0.60;98.50;;;;;;4993159;28;20121;-90
2022/03/20 00:25:45;;;;;;;38.15;13.98;;;0.70;97.40;;;;;;4992325;28;20041;-89
2022/03/20 00:28:13;;;;;;;27.05;13.50;;;0.80;97.20;;;;;;4993350;28;20023;-88
2022/03/20 00:30:39;;;;;;;22.20;13.07;;;0.70;97.10;;;;;;4992192;28;20378;-88
2022/03/20 00:33:06;;;;;;;25.60;13.25;;;0.60;96.90;;;;;;4997463;28;20031;-88
2022/03/20 00:35:32;;;;;;;21.50;12.70;;;0.60;97.50;;;;;;4993568;28;20026;-89
2022/03/20 00:37:57;;;;;;;25.25;14.13;;;0.70;97.40;;;;;;4992048;28;20390;-91
2022/03/20 00:40:23;;;;;;;19.75;12.48;;;0.70;97.90;;;;;;5007889;28;20033;-90
2022/03/20 00:42:49;;;;;;;24.08;14.55;;;0.60;97.70;;;;;;4992802;28;20034;-89
2022/03/20 00:45:15;;;;;;;24.65;12.98;;;0.60;97.50;;;;;;4992010;28;20042;-88
2022/03/20 00:47:41;;;;;;;22.55;13.02;;;0.60;97.50;;;;;;4991439;28;20030;-88
2022/03/20 00:50:07;;;;;;;25.88;12.98;;;0.50;97.40;;;;;;4992523;28;20394;-89
2022/03/20 00:52:34;;;;;;;24.73;13.77;;;0.40;97.10;;;;;;4992298;28;20112;-90
2022/03/20 00:55:00;;;;;;;27.98;15.60;;;0.30;97.40;;;;;;5007629;28;20034;-90
2022/03/20 00:57:25;;;;;;;23.20;13.43;;;0.20;97.70;;;;;;4984208;28;20027;-89
2022/03/20 00:59:51;;;;;;;22.52;12.57;;;0.20;98.70;;;;;;4990299;28;20527;-87
2022/03/20 01:02:17;;;;;;;30.73;14.38;;;0.10;98.20;;;;;;4991310;28;20034;-89
2022/03/20 01:04:43;;;;;;;26.40;14.98;;;0.00;98.30;;;;;;4991828;28;20097;-88
2022/03/20 01:07:09;;;;;;;22.48;13.25;;;0.00;99.30;;;;;;4991122;28;20418;-87
2022/03/20 01:09:35;;;;;;;24.63;14.40;;;-0.10;99.00;;;;;;4990613;28;20034;-89
2022/03/20 01:12:02;;;;;;;25.00;14.70;;;-0.10;98.90;;;;;;4991094;28;20493;-88
2022/03/20 01:14:28;;;;;;;26.55;14.23;;;-0.10;98.50;;;;;;4992268;28;20023;-90
2022/03/20 01:16:55;;;;;;;25.42;13.77;;;-0.10;98.10;;;;;;4991900;28;20026;-87
2022/03/20 01:19:25;;;;;;;25.20;13.75;;;-0.20;98.40;;;;;;4992073;28;20089;-90
2022/03/20 01:21:51;;;;;;;24.38;14.50;;;-0.20;98.80;;;;;;4990380;28;20034;-89
2022/03/20 01:24:17;;;;;;;23.85;13.60;;;-0.30;99.00;;;;;;4992151;28;20067;-88
2022/03/20 01:26:43;;;;;;;30.30;14.85;;;-0.40;99.90;;;;;;4992033;28;20031;-88
2022/03/20 01:29:09;;;;;;;25.90;15.38;;;-0.50;99.80;;;;;;4991858;28;20394;-88
2022/03/20 01:31:36;;;;;;;29.15;13.43;;;-0.50;99.60;;;;;;4990260;28;20089;-87
2022/03/20 01:34:03;;;;;;;26.45;13.68;;;-0.40;98.70;;;;;;4992029;28;20558;-91
2022/03/20 01:36:32;;;;;;;27.38;14.45;;;-0.40;98.70;;;;;;4991879;28;20041;-87
2022/03/20 01:38:58;;;;;;;27.90;14.77;;;-0.40;99.00;;;;;;4990879;28;20041;-88
2022/03/20 01:41:24;;;;;;;24.10;13.80;;;-0.40;99.00;;;;;;4985928;28;20027;-90
2022/03/20 01:43:56;;;;;;;23.10;13.63;;;-0.40;99.50;;;;;;4987438;28;20081;-89
2022/03/20 01:46:22;;;;;;;28.77;14.45;;;-0.40;99.10;;;;;;4991151;28;20501;-88
2022/03/20 01:48:49;;;;;;;26.27;14.43;;;-0.30;98.60;;;;;;4991261;28;20034;-89
2022/03/20 01:51:16;;;;;;;24.83;14.27;;;-0.30;98.80;;;;;;4990472;28;20122;-88
2022/03/20 01:53:42;;;;;;;29.27;14.13;;;-0.20;98.30;;;;;;4988360;28;20038;-87
2022/03/20 01:56:08;;;;;;;25.75;13.68;;;-0.30;97.90;;;;;;4988300;28;20026;-88
2022/03/20 01:58:34;;;;;;;28.33;15.40;;;-0.30;98.60;;;;;;4991426;28;20400;-88
2022/03/20 02:01:00;;;;;;;24.73;14.20;;;-0.40;98.70;;;;;;4997105;28;20042;-88
2022/03/20 02:03:26;;;;;;;28.48;13.93;;;-0.40;99.60;;;;;;4987350;28;20027;-89
2022/03/20 02:05:52;;;;;;;27.42;15.27;;;-0.40;99.40;;;;;;4984651;28;20070;-88
2022/03/20 02:08:25;;;;;;;26.88;14.73;;;-0.30;99.30;;;;;;5001383;28;20878;-90
2022/03/20 02:10:54;;;;;;;24.63;12.65;;;-0.20;98.80;;;;;;4998556;28;20050;-89
2022/03/20 02:13:22;;;;;;;24.52;13.48;;;-0.20;98.00;;;;;;4993450;28;20108;-89
2022/03/20 02:15:49;;;;;;;31.80;16.52;;;-0.20;97.80;;;;;;4994548;28;20029;-89
2022/03/20 02:18:15;;;;;;;27.90;14.20;;;-0.30;97.90;;;;;;4990076;28;20081;-89
2022/03/20 02:20:45;;;;;;;29.15;15.85;;;-0.30;98.00;;;;;;4995459;28;20030;-89
2022/03/20 02:23:12;;;;;;;23.88;13.52;;;-0.30;98.00;;;;;;4984291;28;20090;-88
2022/03/20 02:25:50;;;;;;;26.95;13.68;;;-0.10;97.50;;;;;;5003079;28;20033;-88
2022/03/20 02:28:16;;;;;;;30.75;16.05;;;0.00;98.10;;;;;;4998537;28;20035;-88
2022/03/20 02:30:42;;;;;;;27.55;13.50;;;0.10;98.10;;;;;;4990087;28;20526;-89
2022/03/20 02:33:08;;;;;;;28.90;13.88;;;0.40;96.50;;;;;;4990425;28;20125;-89
2022/03/20 02:35:35;;;;;;;25.15;14.20;;;0.50;96.20;;;;;;4988435;28;20121;-87
2022/03/20 02:38:02;;;;;;;28.83;14.70;;;0.50;96.80;;;;;;4990051;28;20080;-88
2022/03/20 02:40:28;;;;;;;27.55;14.18;;;0.60;96.40;;;;;;4989772;28;20057;-83
2022/03/20 02:42:54;;;;;;;28.45;16.60;;;0.50;94.90;;;;;;4990250;28;20065;-87
2022/03/20 02:45:30;;;;;;;26.35;14.93;;;0.50;94.70;;;;;;5005715;28;20030;-89
2022/03/20 02:48:01;;;;;;;28.73;15.63;;;0.60;94.10;;;;;;4988997;28;20030;-87
2022/03/20 02:50:36;;;;;;;26.65;14.70;;;0.60;94.30;;;;;;4990344;28;20084;-88
2022/03/20 02:53:11;;;;;;;26.80;13.73;;;0.60;94.70;;;;;;4990052;28;20134;-91
2022/03/20 02:55:39;;;;;;;27.02;15.07;;;0.80;94.40;;;;;;4988975;28;20474;-89
2022/03/20 02:58:13;;;;;;;29.88;15.60;;;0.80;93.90;;;;;;4989848;28;20018;-87
2022/03/20 03:00:41;;;;;;;24.52;13.63;;;0.80;94.10;;;;;;4989104;28;20482;-90
2022/03/20 03:03:11;;;;;;;25.10;14.48;;;1.00;93.30;;;;;;4989500;28;20541;-90
2022/03/20 03:05:38;;;;;;;26.27;14.02;;;0.90;94.50;;;;;;4969006;28;20081;-90
2022/03/20 03:10:56;;;;;;;30.17;14.70;;;0.80;94.70;;;;;;4993901;28;20038;-87
2022/03/20 03:13:23;;;;;;;26.80;14.68;;;0.60;94.70;;;;;;4993709;28;20084;-90
2022/03/20 03:15:52;;;;;;;23.67;14.10;;;0.80;94.10;;;;;;4993667;28;20117;-87
2022/03/20 03:18:18;;;;;;;30.05;15.57;;;0.80;94.60;;;;;;4992725;28;20486;-87
2022/03/20 03:20:45;;;;;;;26.48;14.50;;;0.90;94.70;;;;;;4983902;28;20062;-89
2022/03/20 03:23:11;;;;;;;28.85;15.32;;;1.10;94.70;;;;;;4987240;28;20026;-87
2022/03/20 03:25:38;;;;;;;25.83;13.98;;;1.10;94.20;;;;;;5008107;28;20053;-90
2022/03/20 03:28:04;;;;;;;28.33;14.07;;;1.10;93.50;;;;;;4992598;28;20398;-88
2022/03/20 03:30:30;;;;;;;27.75;14.18;;;1.00;94.50;;;;;;4993228;28;20054;-89
2022/03/20 03:32:56;;;;;;;26.00;13.30;;;0.90;95.30;;;;;;5005815;28;20056;-87
2022/03/20 03:38:15;;;;;;;29.73;16.40;;;0.90;94.70;;;;;;4993709;28;20418;-92
2022/03/20 03:40:44;;;;;;;26.75;14.45;;;1.00;95.40;;;;;;4983999;28;20489;-90
2022/03/20 03:43:10;;;;;;;27.88;14.93;;;1.00;95.30;;;;;;4993388;28;20030;-89
2022/03/20 03:45:39;;;;;;;27.27;14.10;;;0.90;95.50;;;;;;4993458;28;20146;-89
2022/03/20 03:48:05;;;;;;;28.30;15.48;;;0.80;95.10;;;;;;4993408;28;20019;-89
2022/03/20 03:50:30;;;;;;;26.42;15.10;;;0.70;94.80;;;;;;4992109;28;20068;-89
2022/03/20 03:52:56;;;;;;;28.50;16.60;;;0.50;95.40;;;;;;4991813;28;20443;-88
2022/03/20 03:55:22;;;;;;;25.52;12.57;;;0.40;95.30;;;;;;4994399;28;20105;-88
2022/03/20 03:57:50;;;;;;;25.60;15.27;;;0.20;96.60;;;;;;5008375;28;20108;-88
2022/03/20 04:00:18;;;;;;;28.15;15.35;;;0.20;97.00;;;;;;4983448;28;20692;-89
2022/03/20 04:02:43;;;;;;;30.77;15.60;;;0.10;97.80;;;;;;4990709;28;20054;-89
2022/03/20 04:05:10;;;;;;;28.20;15.32;;;0.10;97.40;;;;;;4991105;28;20802;-89
2022/03/20 04:07:36;;;;;;;27.77;16.63;;;0.10;97.50;;;;;;4993489;28;20022;-87
2022/03/20 04:10:05;;;;;;;29.45;15.43;;;0.10;97.40;;;;;;4992463;28;20062;-90
2022/03/20 04:12:38;;;;;;;31.08;15.88;;;0.10;97.40;;;;;;4991608;28;20500;-88
2022/03/20 04:15:25;;;;;;;30.00;14.98;;;0.00;97.10;;;;;;4991075;28;20038;-88
2022/03/20 04:17:51;;;;;;;28.40;15.63;;;-0.10;98.30;;;;;;4991952;28;20037;-89
2022/03/20 04:20:17;;;;;;;32.30;15.35;;;-0.10;99.60;;;;;;4991201;28;20425;-89
2022/03/20 04:23:42;;;;;;;31.48;14.73;;;-0.30;99.90;;;;;;4991311;28;20030;-90
2022/03/20 04:25:29;;;;;;;28.73;15.98;;;-0.30;99.90;;;;;;4991795;28;20034;-91
2022/03/20 04:27:58;;;;;;;30.75;15.80;;;-0.40;99.90;;;;;;4992541;28;20038;-90
2022/03/20 04:30:26;;;;;;;29.17;15.45;;;-0.40;99.90;;;;;;4982491;28;20046;-90
2022/03/20 04:32:55;;;;;;;28.15;14.95;;;-0.50;99.90;;;;;;4971973;28;20061;-88
2022/03/20 04:35:23;;;;;;;29.60;16.55;;;-0.50;99.90;;;;;;4973004;28;20144;-89
2022/03/20 04:37:52;;;;;;;34.40;15.63;;;-0.50;99.90;;;;;;4972908;28;20390;-88
2022/03/20 04:40:18;;;;;;;30.45;15.55;;;-0.60;99.90;;;;;;4972559;28;20042;-88
2022/03/20 04:42:44;;;;;;;24.33;13.68;;;-0.70;99.90;;;;;;4970318;28;20463;-91
2022/03/20 04:45:11;;;;;;;29.52;16.90;;;-0.70;99.90;;;;;;4973435;28;20059;-90
2022/03/20 04:58:35;;;;;;;29.30;14.02;;;-0.70;99.90;;;;;;4973495;28;20438;-87
2022/03/20 05:01:03;;;;;;;28.83;14.30;;;-0.60;99.90;;;;;;4959599;28;20031;-91
2022/03/20 05:03:31;;;;;;;26.73;14.80;;;-0.60;99.90;;;;;;4988132;28;20054;-87
2022/03/20 05:05:57;;;;;;;29.85;15.77;;;-0.60;99.90;;;;;;4988766;28;20104;-88
2022/03/20 05:08:23;;;;;;;30.17;14.65;;;-0.60;99.90;;;;;;4999014;28;20038;-90
2022/03/20 05:13:33;;;;;;;32.95;14.82;;;-0.60;99.90;;;;;;4983538;28;20130;-87
2022/03/20 05:15:59;;;;;;;32.42;16.95;;;-0.60;99.90;;;;;;4987809;28;20405;-90
2022/03/20 05:18:24;;;;;;;29.08;15.48;;;-0.70;99.90;;;;;;4990031;28;20026;-90
2022/03/20 05:20:52;;;;;;;28.60;16.50;;;-0.70;99.90;;;;;;4990954;28;20039;-91
2022/03/20 05:23:19;;;;;;;34.25;15.20;;;-0.80;99.90;;;;;;4991814;28;20026;-89
2022/03/20 05:25:44;;;;;;;24.67;13.65;;;-0.70;99.90;;;;;;4990356;28;20041;-90
2022/03/20 05:28:10;;;;;;;28.90;14.57;;;-0.70;99.90;;;;;;4989678;28;20030;-89
2022/03/20 05:30:36;;;;;;;27.30;16.35;;;-0.60;99.90;;;;;;4991658;28;20137;-89
2022/03/20 05:33:01;;;;;;;30.05;15.15;;;-0.60;99.90;;;;;;4980756;28;20054;-89
2022/03/20 05:35:27;;;;;;;28.90;16.60;;;-0.60;99.90;;;;;;4982243;28;20034;-90
2022/03/20 05:37:54;;;;;;;27.75;14.45;;;-0.60;99.90;;;;;;4999747;28;20789;-88
2022/03/20 05:40:19;;;;;;;29.73;15.45;;;-0.60;99.90;;;;;;4988629;28;20034;-88
2022/03/20 05:42:45;;;;;;;33.50;16.23;;;-0.70;99.90;;;;;;4991302;28;20337;-88
2022/03/20 05:45:11;;;;;;;29.23;15.63;;;-0.80;99.90;;;;;;4995939;28;20034;-87
2022/03/20 05:47:38;;;;;;;37.75;16.02;;;-0.80;99.90;;;;;;4993726;28;20466;-89
2022/03/20 05:50:05;;;;;;;27.08;14.32;;;-0.80;99.90;;;;;;4989991;28;20026;-87
2022/03/20 05:52:31;;;;;;;33.92;17.08;;;-0.80;99.90;;;;;;4973524;28;20034;-88
2022/03/20 05:54:58;;;;;;;31.05;14.77;;;-0.90;99.90;;;;;;4978212;28;20034;-90
2022/03/20 06:00:16;;;;;;;27.77;13.63;;;-0.90;99.90;;;;;;4990848;28;20037;-87
2022/03/20 06:02:45;;;;;;;32.17;14.68;;;-0.70;99.90;;;;;;4986904;28;20104;-88
2022/03/20 06:05:11;;;;;;;24.75;15.07;;;-0.60;99.90;;;;;;4993221;28;20046;-89
2022/03/20 06:07:42;;;;;;;28.20;14.82;;;-0.60;99.90;;;;;;4989480;28;20049;-87
2022/03/20 06:10:19;;;;;;;32.00;16.88;;;-0.60;99.90;;;;;;4988447;28;20513;-89
2022/03/20 06:12:46;;;;;;;29.13;15.80;;;-0.60;99.90;;;;;;5005619;28;20394;-88
2022/03/20 06:15:13;;;;;;;28.33;15.15;;;-0.50;99.90;;;;;;4991001;28;20394;-87
2022/03/20 06:17:46;;;;;;;28.30;14.88;;;-0.50;99.90;;;;;;5001100;28;20036;-90
2022/03/20 06:20:14;;;;;;;29.05;16.17;;;-0.40;99.90;;;;;;4997006;28;20539;-88
2022/03/20 06:22:41;;;;;;;28.45;14.60;;;-0.20;99.90;;;;;;5005515;28;20650;-88
2022/03/20 06:25:13;;;;;;;30.38;17.80;;;-0.20;99.90;;;;;;4984891;28;20030;-88
2022/03/20 06:27:46;;;;;;;29.75;16.98;;;-0.10;99.90;;;;;;4990321;28;20030;-91
2022/03/20 06:30:13;;;;;;;29.13;15.05;;;0.00;99.90;;;;;;4987719;28;20562;-89
2022/03/20 06:32:40;;;;;;;27.25;14.73;;;0.10;99.90;;;;;;4988861;28;20391;-88
2022/03/20 06:35:06;;;;;;;28.75;14.43;;;0.10;99.20;;;;;;4989330;28;20037;-89
2022/03/20 06:37:40;;;;;;;31.88;16.40;;;0.00;99.40;;;;;;4989741;28;20073;-88
2022/03/20 06:40:07;;;;;;;28.30;14.95;;;0.00;99.30;;;;;;4988299;28;20113;-90
2022/03/20 06:42:33;;;;;;;26.73;14.02;;;0.00;98.90;;;;;;4990064;28;20041;-86
2022/03/20 06:45:00;;;;;;;31.10;14.68;;;0.20;99.60;;;;;;4989844;28;20035;-87
2022/03/20 06:47:27;;;;;;;32.08;15.65;;;0.30;99.10;;;;;;4988865;28;20038;-91
2022/03/20 06:49:55;;;;;;;29.00;14.07;;;0.40;98.60;;;;;;4989132;28;20080;-89
2022/03/20 06:52:24;;;;;;;29.77;16.17;;;0.50;98.50;;;;;;4989495;28;20394;-88
2022/03/20 06:54:50;;;;;;;32.28;18.13;;;0.60;98.60;;;;;;4982687;28;20058;-88
2022/03/20 06:57:20;;;;;;;30.70;14.02;;;0.60;97.70;;;;;;4972220;28;20046;-89
2022/03/20 06:59:46;;;;;;;28.63;16.92;;;0.50;97.30;;;;;;4989826;28;20533;-89
2022/03/20 07:02:12;;;;;;;26.48;15.02;;;0.60;98.10;;;;;;4988068;28;20044;-88
2022/03/20 07:04:37;;;;;;;27.75;15.82;;;0.80;98.30;;;;;;4989310;28;20046;-88
2022/03/20 07:07:03;;;;;;;31.20;16.23;;;0.90;97.90;;;;;;4990352;28;20038;-88
2022/03/20 07:09:29;;;;;;;29.08;16.40;;;1.10;97.50;;;;;;4988736;28;20065;-89
2022/03/20 07:11:55;;;;;;;27.48;16.25;;;1.10;96.40;;;;;;4989933;28;20122;-88
2022/03/20 07:14:20;;;;;;;32.70;17.08;;;1.20;96.60;;;;;;4988213;28;20038;-87
2022/03/20 07:16:46;;;;;;;39.25;18.17;;;1.20;96.70;;;;;;4989223;28;20034;-84
2022/03/20 07:19:12;;;;;;;25.65;16.42;;;1.30;96.80;;;;;;4989420;28;20062;-87
2022/03/20 07:21:37;;;;;;;26.10;14.50;;;1.20;96.00;;;;;;4988041;28;20035;-89
2022/03/20 07:24:04;;;;;;;31.33;18.08;;;1.20;95.90;;;;;;4989542;28;20026;-88
2022/03/20 07:29:31;;;;;;;28.80;16.30;;;1.30;96.50;;;;;;4989896;28;20037;-88
2022/03/20 07:32:02;;;;;;;31.35;16.35;;;1.60;96.40;;;;;;4988802;28;20042;-89
2022/03/20 07:34:28;;;;;;;32.10;16.45;;;1.70;96.20;;;;;;4989304;28;20113;-89
2022/03/20 07:36:54;;;;;;;33.40;17.77;;;1.80;95.90;;;;;;4977253;28;20074;-87
2022/03/20 07:39:20;;;;;;;36.40;17.02;;;2.00;95.10;;;;;;4990654;28;20488;-87
2022/03/20 07:41:45;;;;;;;33.33;15.70;;;1.90;94.90;;;;;;4981596;28;20030;-90
2022/03/20 07:44:11;;;;;;;36.03;17.90;;;1.90;94.80;;;;;;4970297;28;20394;-88
2022/03/20 07:46:38;;;;;;;33.45;17.08;;;2.10;95.40;;;;;;5010652;28;21575;-88
2022/03/20 07:49:04;;;;;;;33.67;17.83;;;2.10;95.30;;;;;;4996514;28;20029;-89
2022/03/20 07:51:30;;;;;;;34.30;18.48;;;2.30;95.40;;;;;;5008032;28;20037;-90
2022/03/20 07:53:57;;;;;;;34.83;18.20;;;2.50;94.60;;;;;;4994429;28;20470;-88
2022/03/20 07:56:23;;;;;;;30.88;18.05;;;2.60;94.80;;;;;;4983512;28;20030;-88
2022/03/20 07:58:51;;;;;;;29.48;17.95;;;2.80;94.40;;;;;;4990648;28;20034;-90
2022/03/20 08:01:17;;;;;;;32.50;16.55;;;2.90;94.00;;;;;;4991746;28;20050;-89
2022/03/20 08:03:43;;;;;;;31.25;18.45;;;2.80;93.30;;;;;;4992794;28;20105;-90
2022/03/20 08:06:09;;;;;;;34.22;18.17;;;2.80;93.40;;;;;;4973323;28;20133;-89
2022/03/20 08:08:39;;;;;;;31.77;15.35;;;3.00;93.80;;;;;;4988387;28;20212;-86
2022/03/20 08:11:05;;;;;;;34.63;18.48;;;3.20;93.10;;;;;;4992245;28;20029;-90
2022/03/20 08:13:31;;;;;;;33.85;19.05;;;3.30;93.40;;;;;;4991847;28;20049;-91
2022/03/20 08:15:57;;;;;;;36.05;21.02;;;3.50;92.50;;;;;;4991665;28;20061;-88
2022/03/20 08:18:23;;;;;;;38.35;19.73;;;3.60;92.80;;;;;;4989412;28;20482;-89
2022/03/20 08:20:49;;;;;;;36.80;19.80;;;3.70;92.10;;;;;;5009981;28;20048;-89
2022/03/20 08:23:14;;;;;;;38.05;20.20;;;3.80;92.00;;;;;;4991845;28;20425;-88
2022/03/20 08:25:42;;;;;;;33.17;20.13;;;3.90;92.10;;;;;;4991322;28;20058;-86
2022/03/20 08:28:09;;;;;;;32.72;18.17;;;4.00;90.80;;;;;;4989185;28;20042;-88
2022/03/20 08:30:36;;;;;;;36.08;21.08;;;4.10;91.20;;;;;;4981823;28;20046;-87
2022/03/20 08:33:02;;;;;;;39.42;20.48;;;4.20;90.70;;;;;;4971084;28;20101;-89
2022/03/20 08:35:28;;;;;;;33.38;19.45;;;4.30;91.30;;;;;;4974014;28;20026;-87
2022/03/20 08:37:54;;;;;;;37.00;19.50;;;4.60;89.60;;;;;;4978861;28;20070;-87
2022/03/20 08:40:22;;;;;;;34.70;19.38;;;4.80;88.50;;;;;;4971822;28;20035;-86
2022/03/20 08:42:52;;;;;;;33.88;18.85;;;5.00;88.20;;;;;;4970639;28;20050;-88
2022/03/20 08:45:19;;;;;;;34.30;20.03;;;5.10;84.20;;;;;;4975670;28;20390;-90
2022/03/20 08:47:45;;;;;;;37.08;19.48;;;5.30;86.40;;;;;;4971305;28;20713;-87
2022/03/20 08:50:13;;;;;;;39.45;21.17;;;5.20;88.20;;;;;;4972250;28;20059;-89
2022/03/20 08:52:39;;;;;;;35.80;19.73;;;5.60;85.60;;;;;;4976961;28;20027;-87
2022/03/20 08:55:10;;;;;;;35.60;20.10;;;5.60;82.80;;;;;;4971177;28;20811;-87
2022/03/20 08:57:41;;;;;;;34.25;20.58;;;6.00;81.70;;;;;;4971348;28;20085;-86
2022/03/20 09:00:09;;;;;;;34.40;20.40;;;6.10;81.20;;;;;;4969848;28;20434;-88
2022/03/20 09:02:36;;;;;;;36.45;21.08;;;6.30;79.70;;;;;;4989046;28;20158;-88
2022/03/20 09:05:02;;;;;;;34.28;19.48;;;6.60;78.90;;;;;;4989135;28;20050;-85
2022/03/20 09:07:28;;;;;;;33.45;19.70;;;6.70;77.10;;;;;;4991579;28;20022;-85
2022/03/20 09:09:54;;;;;;;35.58;20.85;;;6.70;78.30;;;;;;4992994;28;20034;-89
2022/03/20 09:12:20;;;;;;;34.22;19.88;;;6.70;76.00;;;;;;4991521;28;20105;-88
2022/03/20 09:14:46;;;;;;;34.75;21.58;;;6.80;74.80;;;;;;4988080;28;20034;-87
2022/03/20 09:19:57;;;;;;;31.88;20.60;;;7.30;72.80;;;;;;4989188;28;20045;-86
2022/03/20 09:22:25;;;;;;;37.15;19.73;;;7.60;71.80;;;;;;4988594;28;20445;-87
2022/03/20 09:24:52;;;;;;;37.75;19.98;;;7.80;71.70;;;;;;4996043;28;20102;-88
2022/03/20 09:27:17;;;;;;;32.03;19.15;;;7.90;67.60;;;;;;4986119;28;20034;-87
2022/03/20 09:29:43;;;;;;;36.17;20.52;;;8.10;67.30;;;;;;4993517;28;20034;-86
2022/03/20 09:32:09;;;;;;;32.83;19.35;;;8.40;67.40;;;;;;4992338;28;20038;-86
2022/03/20 09:34:35;;;;;;;27.85;16.30;;;8.30;64.00;;;;;;4993282;28;20080;-87
2022/03/20 09:37:01;;;;;;;34.45;19.13;;;8.60;62.10;;;;;;4998214;28;20140;-87
2022/03/20 09:39:26;;;;;;;30.90;18.60;;;9.00;61.20;;;;;;4998081;28;20041;-86
2022/03/20 09:41:55;;;;;;;28.88;17.08;;;9.20;58.40;;;;;;4992688;28;20065;-86
2022/03/20 09:44:25;;;;;;;27.88;17.63;;;9.30;55.40;;;;;;4994992;28;20033;-86
2022/03/20 09:46:51;;;;;;;24.77;14.82;;;9.30;51.20;;;;;;4990015;28;20433;-86
2022/03/20 09:49:20;;;;;;;32.88;15.98;;;9.50;50.90;;;;;;4996752;28;20026;-83
2022/03/20 09:51:45;;;;;;;25.58;15.73;;;9.60;53.20;;;;;;4995077;28;20030;-84
2022/03/20 09:54:13;;;;;;;26.40;16.02;;;10.10;52.10;;;;;;4989339;28;20084;-84
2022/03/20 09:56:43;;;;;;;24.60;14.48;;;10.30;52.50;;;;;;4992926;28;20426;-84
2022/03/20 09:59:09;;;;;;;26.27;15.02;;;10.20;46.60;;;;;;4989533;28;20018;-84
2022/03/20 10:01:36;;;;;;;25.23;14.73;;;10.10;45.80;;;;;;4980627;28;20050;-85
2022/03/20 10:04:11;;;;;;;25.48;14.30;;;10.30;50.00;;;;;;4970434;28;20058;-84
2022/03/20 10:06:38;;;;;;;23.00;14.43;;;10.60;47.00;;;;;;4960459;28;20022;-86
2022/03/20 10:09:12;;;;;;;23.58;13.98;;;10.60;45.60;;;;;;4970270;28;20039;-84
2022/03/20 10:11:51;;;;;;;23.23;13.93;;;10.90;45.80;;;;;;4960981;28;20387;-84
2022/03/20 10:14:32;;;;;;;25.02;15.27;;;11.30;44.80;;;;;;4961012;28;20035;-84
2022/03/20 10:17:06;;;;;;;21.13;12.63;;;11.70;45.20;;;;;;4961822;28;20054;-83
2022/03/20 10:19:33;;;;;;;17.33;10.98;;;11.60;41.60;;;;;;4965702;28;20027;-84
2022/03/20 10:22:17;;;;;;;21.80;12.57;;;11.70;39.50;;;;;;4968913;28;20061;-83
2022/03/20 10:24:51;;;;;;;22.50;12.75;;;11.70;40.40;;;;;;4966714;28;20034;-83
2022/03/20 10:27:17;;;;;;;16.35;11.40;;;11.90;41.20;;;;;;4966205;28;20122;-83
2022/03/20 10:30:00;;;;;;;18.20;10.65;;;11.90;40.20;;;;;;4968983;28;20106;-83
2022/03/20 10:32:26;;;;;;;19.13;10.90;;;12.10;40.20;;;;;;4966494;28;20045;-83
2022/03/20 10:35:04;;;;;;;17.15;10.88;;;12.20;38.50;;;;;;4968656;28;20110;-83
2022/03/20 10:37:48;;;;;;;20.05;11.82;;;12.20;36.80;;;;;;4975879;28;20163;-83
2022/03/20 10:40:31;;;;;;;19.13;11.15;;;12.20;39.50;;;;;;4964719;28;20023;-83
2022/03/20 10:43:16;;;;;;;17.10;10.32;;;12.20;36.80;;;;;;4967041;28;20043;-83
2022/03/20 10:46:00;;;;;;;16.92;11.35;;;12.50;37.50;;;;;;4969295;28;20049;-83
2022/03/20 10:48:32;;;;;;;20.13;11.57;;;12.90;36.20;;;;;;4966496;28;20023;-82
2022/03/20 10:50:58;;;;;;;19.02;11.65;;;12.90;34.80;;;;;;4983838;28;20019;-82
2022/03/20 10:53:23;;;;;;;17.23;11.18;;;12.90;36.60;;;;;;4969523;28;20042;-82
2022/03/20 10:55:55;;;;;;;17.55;11.25;;;13.30;34.30;;;;;;4969712;28;20030;-82
2022/03/20 10:58:26;;;;;;;18.05;10.98;;;14.00;35.00;;;;;;4966063;28;20085;-81
2022/03/20 11:00:52;;;;;;;19.00;12.50;;;14.10;34.80;;;;;;4964017;28;20027;-82
2022/03/20 11:03:22;;;;;;;18.67;11.50;;;14.10;32.80;;;;;;4961939;28;20034;-81
2022/03/20 11:05:49;;;;;;;19.70;12.73;;;14.00;31.00;;;;;;4968788;28;20126;-81
2022/03/20 11:08:14;;;;;;;17.52;11.38;;;14.40;32.50;;;;;;4967715;28;20465;-81
2022/03/20 11:10:44;;;;;;;20.55;12.85;;;15.10;32.90;;;;;;4965320;28;20143;-80
2022/03/20 11:13:14;;;;;;;19.58;13.63;;;15.20;31.60;;;;;;4964528;28;20042;-81
2022/03/20 11:15:42;;;;;;;19.42;14.00;;;14.40;32.20;;;;;;4983010;28;20039;-81
2022/03/20 11:18:08;;;;;;;22.23;13.20;;;14.70;34.00;;;;;;4970092;28;20077;-81
2022/03/20 11:20:34;;;;;;;21.73;14.02;;;14.90;34.00;;;;;;4963647;28;20141;-80
2022/03/20 11:23:04;;;;;;;20.75;13.93;;;15.50;30.90;;;;;;4983562;28;20412;-79
2022/03/20 11:25:31;;;;;;;19.52;14.68;;;15.80;30.60;;;;;;4967544;28;20026;-81
2022/03/20 11:28:01;;;;;;;22.13;14.73;;;15.40;30.80;;;;;;4966942;28;20034;-80
2022/03/20 11:30:32;;;;;;;24.88;14.90;;;15.20;31.80;;;;;;4974023;28;20031;-81
2022/03/20 11:33:02;;;;;;;22.20;15.32;;;14.70;32.90;;;;;;4991227;28;20113;-80
2022/03/20 11:35:30;;;;;;;25.60;16.23;;;14.40;32.50;;;;;;4991092;28;20058;-80
2022/03/20 11:38:11;;;;;;;25.42;17.33;;;14.40;35.20;;;;;;4990465;28;20054;-81
2022/03/20 11:40:41;;;;;;;;;;;14.20;35.70;;;;;;4991472;28;20460;-81
2022/03/20 11:43:16;;;;;;;23.10;15.27;;;13.90;35.80;;;;;;4992645;28;19917;-81
2022/03/20 11:46:02;;;;;;;25.05;16.77;;;14.70;34.90;;;;;;4992604;28;20452;-81
2022/03/20 11:48:27;;;;;;;23.38;16.13;;;15.60;35.20;;;;;;4991789;28;20497;-80
2022/03/20 11:50:53;;;;;;;24.63;16.67;;;16.90;33.80;;;;;;5005974;28;20042;-81
2022/03/20 11:53:28;;;;;;;25.80;16.90;;;18.00;29.80;;;;;;4988237;28;20023;-82
2022/03/20 11:55:54;;;;;;;22.85;17.10;;;18.40;29.80;;;;;;4988351;28;20033;-80
2022/03/20 11:58:24;;;;;;;27.98;18.33;;;18.30;30.30;;;;;;4987209;28;20864;-80
2022/03/20 12:01:04;;;;;;;28.77;19.23;;;18.20;29.90;;;;;;4991077;28;20508;-81
2022/03/20 12:03:51;;;;;;;23.60;18.08;;;18.50;29.40;;;;;;4989623;28;20027;-80
2022/03/20 12:06:26;;;;;;;28.42;19.42;;;18.90;29.60;;;;;;4990228;28;20066;-81
2022/03/20 12:09:10;;;;;;;28.83;18.48;;;18.70;29.70;;;;;;4992323;28;20096;-81
2022/03/20 12:11:51;;;;;;;23.73;17.27;;;20.20;28.20;;;;;;4990761;28;20046;-81
2022/03/20 12:14:25;;;;;;;;;;;20.30;27.50;;;;;;5006298;28;20375;-81
2022/03/20 12:16:53;;;;;;;28.02;20.15;;;20.50;26.30;;;;;;4989686;28;19914;-81
2022/03/20 12:19:19;;;;;;;25.23;18.98;;;19.60;28.70;;;;;;4986363;28;20026;-81
2022/03/20 12:22:14;;;;;;;30.17;19.95;;;20.00;27.60;;;;;;4991243;28;20421;-81
2022/03/20 12:24:58;;;;;;;25.92;18.95;;;20.00;26.60;;;;;;4988204;28;20042;-81
2022/03/20 12:27:23;;;;;;;24.75;18.40;;;20.10;28.00;;;;;;4991138;28;20437;-81
2022/03/20 12:29:53;;;;;;;23.63;17.98;;;19.90;27.00;;;;;;4990626;28;20033;-81
2022/03/20 12:32:26;;;;;;;27.98;20.00;;;19.90;26.70;;;;;;4989612;28;20038;-81
2022/03/20 12:35:02;;;;;;;28.17;19.77;;;19.20;26.80;;;;;;4987550;28;20235;-81
2022/03/20 12:37:34;;;;;;;25.13;17.70;;;20.40;25.80;;;;;;5003844;28;20060;-81
2022/03/20 12:40:07;;;;;;;24.27;17.73;;;20.10;25.50;;;;;;4989151;28;20034;-81
2022/03/20 12:42:37;;;;;;;24.08;16.83;;;19.50;26.00;;;;;;4990880;28;20725;-81
2022/03/20 12:45:04;;;;;;;22.80;17.25;;;20.40;25.30;;;;;;4990834;28;20030;-81
2022/03/20 12:47:30;;;;;;;23.92;17.30;;;19.90;24.80;;;;;;4990394;28;20489;-81
2022/03/20 12:50:00;;;;;;;23.80;17.13;;;20.30;25.40;;;;;;4989329;28;20089;-81
2022/03/20 12:52:26;;;;;;;;;;;20.10;24.10;;;;;;4990907;28;20063;-81
2022/03/20 12:54:57;;;;;;;22.45;16.73;;;18.80;26.20;;;;;;4988031;28;19960;-80
2022/03/20 12:57:50;;;;;;;22.98;16.00;;;19.80;24.50;;;;;;5003036;28;20499;-81
2022/03/20 13:00:26;;;;;;;20.83;15.65;;;20.20;25.10;;;;;;4990204;28;20300;-81
2022/03/20 13:03:00;;;;;;;27.35;18.58;;;21.00;25.00;;;;;;4995219;28;20097;-81
2022/03/20 13:05:28;;;;;;;27.90;18.98;;;20.50;24.90;;;;;;4995123;28;20355;-81
2022/03/20 13:07:55;;;;;;;24.52;18.45;;;20.40;24.70;;;;;;4997368;28;20050;-81